sensor_id;sensor_type;location;lat;lon;timestamp;pressure;altitude;pressure_sealevel;temperature;humidity
45129;BME280;35512;56.312;101.728;2023-02-22T00:02:07;97427.91;;;-14.41;80.04
45129;BME280;35512;56.312;101.728;2023-02-22T00:04:40;97423.72;;;-14.42;80.59
45129;BME280;35512;56.312;101.728;2023-02-22T00:07:09;97429.97;;;-14.36;80.09
45129;BME280;35512;56.312;101.728;2023-02-22T00:09:38;97429.53;;;-14.40;80.35
45129;BME280;35512;56.312;101.728;2023-02-22T00:12:07;97438.19;;;-14.33;80.34
45129;BME280;35512;56.312;101.728;2023-02-22T00:14:37;97446.25;;;-14.28;80.53
45129;BME280;35512;56.312;101.728;2023-02-22T00:17:07;97451.63;;;-14.29;80.34
45129;BME280;35512;56.312;101.728;2023-02-22T00:19:36;97451.34;;;-14.34;80.36
45129;BME280;35512;56.312;101.728;2023-02-22T00:22:05;97451.34;;;-14.34;80.54
45129;BME280;35512;56.312;101.728;2023-02-22T00:24:34;97444.13;;;-14.39;80.43
45129;BME280;35512;56.312;101.728;2023-02-22T00:27:03;97456.09;;;-14.38;80.43
45129;BME280;35512;56.312;101.728;2023-02-22T00:29:32;97463.06;;;-14.38;80.51
45129;BME280;35512;56.312;101.728;2023-02-22T00:32:02;97454.38;;;-14.46;80.27
45129;BME280;35512;56.312;101.728;2023-02-22T00:34:32;97453.94;;;-14.49;79.93
45129;BME280;35512;56.312;101.728;2023-02-22T00:37:01;97464.06;;;-14.39;80.51
45129;BME280;35512;56.312;101.728;2023-02-22T00:39:31;97452.88;;;-14.40;80.10
45129;BME280;35512;56.312;101.728;2023-02-22T00:42:00;97461.41;;;-14.31;80.26
45129;BME280;35512;56.312;101.728;2023-02-22T00:44:29;97460.84;;;-14.26;80.39
45129;BME280;35512;56.312;101.728;2023-02-22T00:46:58;97472.94;;;-14.19;80.06
45129;BME280;35512;56.312;101.728;2023-02-22T00:49:27;97470.25;;;-14.11;80.41
45129;BME280;35512;56.312;101.728;2023-02-22T00:51:56;97477.59;;;-13.99;80.33
45129;BME280;35512;56.312;101.728;2023-02-22T00:54:25;97476.41;;;-13.82;80.67
45129;BME280;35512;56.312;101.728;2023-02-22T00:56:54;97481.00;;;-13.47;80.58
45129;BME280;35512;56.312;101.728;2023-02-22T00:59:23;97476.22;;;-12.85;81.31
45129;BME280;35512;56.312;101.728;2023-02-22T01:01:52;97483.75;;;-12.12;81.72
45129;BME280;35512;56.312;101.728;2023-02-22T01:04:22;97482.25;;;-11.45;81.15
45129;BME280;35512;56.312;101.728;2023-02-22T01:06:51;97491.63;;;-10.89;81.35
45129;BME280;35512;56.312;101.728;2023-02-22T01:09:21;97477.34;;;-10.32;81.32
45129;BME280;35512;56.312;101.728;2023-02-22T01:11:55;97489.88;;;-9.62;81.30
45129;BME280;35512;56.312;101.728;2023-02-22T01:14:25;97483.41;;;-9.08;80.78
45129;BME280;35512;56.312;101.728;2023-02-22T01:16:55;97489.69;;;-8.52;80.57
45129;BME280;35512;56.312;101.728;2023-02-22T01:19:24;97502.50;;;-8.00;80.56
45129;BME280;35512;56.312;101.728;2023-02-22T01:21:53;97502.41;;;-7.49;80.28
45129;BME280;35512;56.312;101.728;2023-02-22T01:24:21;97500.94;;;-6.96;80.08
45129;BME280;35512;56.312;101.728;2023-02-22T01:26:53;97502.00;;;-6.43;79.89
45129;BME280;35512;56.312;101.728;2023-02-22T01:29:22;97491.16;;;-5.87;80.05
45129;BME280;35512;56.312;101.728;2023-02-22T01:31:53;97497.47;;;-5.36;79.18
45129;BME280;35512;56.312;101.728;2023-02-22T01:34:23;97491.56;;;-4.85;79.20
45129;BME280;35512;56.312;101.728;2023-02-22T01:36:53;97502.34;;;-4.41;78.56
45129;BME280;35512;56.312;101.728;2023-02-22T01:39:22;97495.31;;;-3.84;78.92
45129;BME280;35512;56.312;101.728;2023-02-22T01:41:52;97510.34;;;-3.24;78.91
45129;BME280;35512;56.312;101.728;2023-02-22T01:44:31;97511.88;;;-2.78;78.03
45129;BME280;35512;56.312;101.728;2023-02-22T01:47:03;97511.94;;;-2.46;77.21
45129;BME280;35512;56.312;101.728;2023-02-22T01:49:47;97519.97;;;-2.03;77.36
45129;BME280;35512;56.312;101.728;2023-02-22T01:52:19;97505.44;;;-1.58;77.30
45129;BME280;35512;56.312;101.728;2023-02-22T01:54:53;97511.22;;;-1.13;76.91
45129;BME280;35512;56.312;101.728;2023-02-22T01:57:32;97506.59;;;-0.59;77.11
45129;BME280;35512;56.312;101.728;2023-02-22T02:00:08;97517.50;;;-0.14;75.71
45129;BME280;35512;56.312;101.728;2023-02-22T02:02:47;97523.34;;;0.24;75.14
45129;BME280;35512;56.312;101.728;2023-02-22T02:05:21;97527.50;;;0.61;75.36
45129;BME280;35512;56.312;101.728;2023-02-22T02:07:53;97531.69;;;0.88;74.81
45129;BME280;35512;56.312;101.728;2023-02-22T02:10:22;97532.69;;;1.02;74.38
45129;BME280;35512;56.312;101.728;2023-02-22T02:12:52;97526.78;;;1.10;74.49
45129;BME280;35512;56.312;101.728;2023-02-22T02:15:31;97531.88;;;1.12;74.14
45129;BME280;35512;56.312;101.728;2023-02-22T02:18:04;97530.94;;;1.32;74.61
45129;BME280;35512;56.312;101.728;2023-02-22T02:42:09;97555.06;;;1.91;73.39
45129;BME280;35512;56.312;101.728;2023-02-22T02:44:49;97560.22;;;2.46;73.09
45129;BME280;35512;56.312;101.728;2023-02-22T02:47:31;97525.38;;;2.91;72.76
45129;BME280;35512;56.312;101.728;2023-02-22T02:50:09;97545.34;;;3.55;72.87
45129;BME280;35512;56.312;101.728;2023-02-22T02:52:41;97540.25;;;4.11;72.52
45129;BME280;35512;56.312;101.728;2023-02-22T02:55:12;97549.00;;;4.64;71.75
45129;BME280;35512;56.312;101.728;2023-02-22T02:57:41;97544.44;;;5.06;70.89
45129;BME280;35512;56.312;101.728;2023-02-22T03:00:15;97542.91;;;5.41;70.48
45129;BME280;35512;56.312;101.728;2023-02-22T03:11:20;97551.28;;;6.76;68.89
45129;BME280;35512;56.312;101.728;2023-02-22T03:19:32;97561.06;;;7.21;68.37
45129;BME280;35512;56.312;101.728;2023-02-22T03:27:19;97542.66;;;7.81;68.10
45129;BME280;35512;56.312;101.728;2023-02-22T03:29:57;97551.84;;;8.15;68.41
45129;BME280;35512;56.312;101.728;2023-02-22T03:32:38;97544.34;;;8.55;68.71
45129;BME280;35512;56.312;101.728;2023-02-22T03:35:12;97533.97;;;8.84;68.34
45129;BME280;35512;56.312;101.728;2023-02-22T03:37:46;97553.88;;;9.30;68.13
45129;BME280;35512;56.312;101.728;2023-02-22T03:40:22;97557.50;;;9.55;67.76
45129;BME280;35512;56.312;101.728;2023-02-22T03:43:06;97556.47;;;9.69;67.25
45129;BME280;35512;56.312;101.728;2023-02-22T03:45:42;97567.59;;;9.88;67.71
45129;BME280;35512;56.312;101.728;2023-02-22T03:49:01;97566.44;;;10.31;67.50
45129;BME280;35512;56.312;101.728;2023-02-22T03:51:14;97570.06;;;10.36;67.37
45129;BME280;35512;56.312;101.728;2023-02-22T03:53:48;97560.81;;;10.70;67.23
45129;BME280;35512;56.312;101.728;2023-02-22T03:56:28;97572.13;;;11.46;67.17
45129;BME280;35512;56.312;101.728;2023-02-22T03:59:06;97568.06;;;12.18;67.07
45129;BME280;35512;56.312;101.728;2023-02-22T04:01:36;97577.53;;;12.84;66.46
45129;BME280;35512;56.312;101.728;2023-02-22T04:04:06;97580.16;;;13.29;65.13
45129;BME280;35512;56.312;101.728;2023-02-22T04:06:37;97585.75;;;13.04;63.38
45129;BME280;35512;56.312;101.728;2023-02-22T04:09:06;97586.66;;;11.05;62.91
45129;BME280;35512;56.312;101.728;2023-02-22T04:11:36;97581.53;;;9.39;65.41
45129;BME280;35512;56.312;101.728;2023-02-22T04:14:05;97588.38;;;8.59;66.23
45129;BME280;35512;56.312;101.728;2023-02-22T04:16:34;97581.00;;;8.86;67.40
45129;BME280;35512;56.312;101.728;2023-02-22T04:19:07;97580.22;;;9.75;67.66
45129;BME280;35512;56.312;101.728;2023-02-22T04:21:38;97574.53;;;10.31;65.52
45129;BME280;35512;56.312;101.728;2023-02-22T04:24:13;97585.03;;;10.67;65.73
45129;BME280;35512;56.312;101.728;2023-02-22T04:26:42;97581.47;;;10.99;65.15
45129;BME280;35512;56.312;101.728;2023-02-22T04:29:11;97578.09;;;11.27;64.43
45129;BME280;35512;56.312;101.728;2023-02-22T04:31:43;97586.34;;;11.06;63.64
45129;BME280;35512;56.312;101.728;2023-02-22T04:34:13;97580.19;;;10.72;63.28
45129;BME280;35512;56.312;101.728;2023-02-22T04:36:42;97583.16;;;10.92;65.19
45129;BME280;35512;56.312;101.728;2023-02-22T04:39:12;97581.94;;;11.51;65.25
45129;BME280;35512;56.312;101.728;2023-02-22T04:41:41;97577.88;;;12.39;64.68
45129;BME280;35512;56.312;101.728;2023-02-22T04:44:11;97578.22;;;12.97;64.45
45129;BME280;35512;56.312;101.728;2023-02-22T04:46:40;97568.59;;;13.48;63.71
45129;BME280;35512;56.312;101.728;2023-02-22T04:49:12;97572.97;;;13.88;62.63
45129;BME280;35512;56.312;101.728;2023-02-22T04:51:43;97581.19;;;13.92;61.36
45129;BME280;35512;56.312;101.728;2023-02-22T04:54:12;97577.59;;;13.52;61.69
45129;BME280;35512;56.312;101.728;2023-02-22T04:56:45;97581.19;;;13.56;61.68
45129;BME280;35512;56.312;101.728;2023-02-22T04:59:14;97576.88;;;13.55;61.49
45129;BME280;35512;56.312;101.728;2023-02-22T05:01:45;97577.69;;;13.56;60.91
45129;BME280;35512;56.312;101.728;2023-02-22T05:04:15;97583.22;;;13.27;60.15
45129;BME280;35512;56.312;101.728;2023-02-22T05:06:44;97581.91;;;12.89;60.42
45129;BME280;35512;56.312;101.728;2023-02-22T05:09:13;97580.75;;;12.02;59.93
45129;BME280;35512;56.312;101.728;2023-02-22T05:11:42;97582.47;;;11.69;61.13
45129;BME280;35512;56.312;101.728;2023-02-22T05:14:11;97577.28;;;12.17;61.73
45129;BME280;35512;56.312;101.728;2023-02-22T05:16:40;97580.53;;;12.51;60.69
45129;BME280;35512;56.312;101.728;2023-02-22T05:19:09;97583.88;;;12.60;60.97
45129;BME280;35512;56.312;101.728;2023-02-22T05:21:38;97592.06;;;12.76;60.04
45129;BME280;35512;56.312;101.728;2023-02-22T05:24:07;97576.53;;;12.45;60.33
45129;BME280;35512;56.312;101.728;2023-02-22T05:26:36;97586.69;;;11.42;60.57
45129;BME280;35512;56.312;101.728;2023-02-22T05:29:05;97577.53;;;9.75;59.22
45129;BME280;35512;56.312;101.728;2023-02-22T05:31:34;97590.72;;;6.98;61.69
45129;BME280;35512;56.312;101.728;2023-02-22T05:34:03;97580.88;;;4.60;64.19
45129;BME280;35512;56.312;101.728;2023-02-22T05:36:32;97602.41;;;2.97;67.13
45129;BME280;35512;56.312;101.728;2023-02-22T05:39:01;97591.47;;;2.06;69.11
45129;BME280;35512;56.312;101.728;2023-02-22T05:41:30;97590.13;;;1.68;69.87
45129;BME280;35512;56.312;101.728;2023-02-22T05:43:58;97593.09;;;1.62;70.41
45129;BME280;35512;56.312;101.728;2023-02-22T05:46:27;97589.94;;;1.99;70.60
45129;BME280;35512;56.312;101.728;2023-02-22T05:48:56;97585.50;;;1.84;70.39
45129;BME280;35512;56.312;101.728;2023-02-22T05:51:25;97598.44;;;2.95;72.00
45129;BME280;35512;56.312;101.728;2023-02-22T05:53:54;97584.69;;;4.40;70.87
45129;BME280;35512;56.312;101.728;2023-02-22T05:56:25;97589.97;;;5.84;69.12
45129;BME280;35512;56.312;101.728;2023-02-22T05:58:54;97589.75;;;6.94;67.39
45129;BME280;35512;56.312;101.728;2023-02-22T06:01:23;97590.91;;;5.52;64.29
45129;BME280;35512;56.312;101.728;2023-02-22T06:03:53;97588.88;;;5.21;67.73
45129;BME280;35512;56.312;101.728;2023-02-22T06:06:22;97601.59;;;6.39;67.90
45129;BME280;35512;56.312;101.728;2023-02-22T06:08:51;97583.47;;;6.67;66.52
45129;BME280;35512;56.312;101.728;2023-02-22T06:11:20;97591.00;;;5.61;65.41
45129;BME280;35512;56.312;101.728;2023-02-22T06:13:52;97583.19;;;4.01;66.44
45129;BME280;35512;56.312;101.728;2023-02-22T06:16:21;97602.63;;;3.68;69.60
45129;BME280;35512;56.312;101.728;2023-02-22T06:18:51;97600.44;;;3.08;68.53
45129;BME280;35512;56.312;101.728;2023-02-22T06:21:19;97609.94;;;2.90;69.77
45129;BME280;35512;56.312;101.728;2023-02-22T06:23:48;97605.16;;;2.87;69.34
45129;BME280;35512;56.312;101.728;2023-02-22T06:26:18;97607.44;;;3.23;70.20
45129;BME280;35512;56.312;101.728;2023-02-22T06:28:47;97607.16;;;3.87;70.06
45129;BME280;35512;56.312;101.728;2023-02-22T06:31:16;97601.81;;;3.68;67.53
45129;BME280;35512;56.312;101.728;2023-02-22T06:33:46;97605.13;;;3.60;68.63
45129;BME280;35512;56.312;101.728;2023-02-22T06:36:14;97601.06;;;4.19;69.22
45129;BME280;35512;56.312;101.728;2023-02-22T06:38:43;97601.22;;;4.75;68.42
45129;BME280;35512;56.312;101.728;2023-02-22T06:41:12;97602.53;;;5.47;67.90
45129;BME280;35512;56.312;101.728;2023-02-22T06:43:43;97600.97;;;5.32;66.20
45129;BME280;35512;56.312;101.728;2023-02-22T06:46:14;97612.06;;;4.51;66.15
45129;BME280;35512;56.312;101.728;2023-02-22T06:48:43;97601.31;;;3.66;66.69
45129;BME280;35512;56.312;101.728;2023-02-22T06:51:12;97607.34;;;3.52;68.39
45129;BME280;35512;56.312;101.728;2023-02-22T06:53:41;97606.41;;;4.19;68.97
45129;BME280;35512;56.312;101.728;2023-02-22T06:56:10;97608.00;;;4.53;67.61
45129;BME280;35512;56.312;101.728;2023-02-22T06:58:39;97607.22;;;5.41;68.13
45129;BME280;35512;56.312;101.728;2023-02-22T07:01:08;97608.47;;;6.31;67.17
45129;BME280;35512;56.312;101.728;2023-02-22T07:03:38;97607.31;;;6.69;65.32
45129;BME280;35512;56.312;101.728;2023-02-22T07:06:07;97595.19;;;5.11;63.97
45129;BME280;35512;56.312;101.728;2023-02-22T07:08:38;97613.22;;;3.54;64.90
45129;BME280;35512;56.312;101.728;2023-02-22T07:11:07;97617.25;;;2.50;67.33
45129;BME280;35512;56.312;101.728;2023-02-22T07:13:35;97622.22;;;2.27;68.30
45129;BME280;35512;56.312;101.728;2023-02-22T07:16:04;97623.47;;;2.69;68.76
45129;BME280;35512;56.312;101.728;2023-02-22T07:18:33;97619.28;;;2.87;67.52
45129;BME280;35512;56.312;101.728;2023-02-22T07:21:02;97612.66;;;3.33;67.44
45129;BME280;35512;56.312;101.728;2023-02-22T07:23:32;97620.50;;;3.68;66.53
45129;BME280;35512;56.312;101.728;2023-02-22T07:26:02;97611.91;;;4.61;65.79
45129;BME280;35512;56.312;101.728;2023-02-22T07:28:32;97614.50;;;5.78;64.55
45129;BME280;35512;56.312;101.728;2023-02-22T07:31:01;97617.56;;;6.98;62.82
45129;BME280;35512;56.312;101.728;2023-02-22T07:33:30;97622.59;;;7.98;61.28
45129;BME280;35512;56.312;101.728;2023-02-22T07:35:59;97614.44;;;8.85;61.05
45129;BME280;35512;56.312;101.728;2023-02-22T07:38:28;97619.19;;;9.57;60.14
45129;BME280;35512;56.312;101.728;2023-02-22T07:40:57;97623.28;;;10.14;59.24
45129;BME280;35512;56.312;101.728;2023-02-22T07:43:27;97620.31;;;10.49;58.18
45129;BME280;35512;56.312;101.728;2023-02-22T07:45:59;97626.38;;;10.79;58.18
45129;BME280;35512;56.312;101.728;2023-02-22T07:48:30;97615.13;;;10.90;56.85
45129;BME280;35512;56.312;101.728;2023-02-22T07:51:00;97629.00;;;11.01;57.09
45129;BME280;35512;56.312;101.728;2023-02-22T07:53:30;97633.06;;;11.19;56.49
45129;BME280;35512;56.312;101.728;2023-02-22T07:56:03;97627.72;;;11.44;56.81
45129;BME280;35512;56.312;101.728;2023-02-22T07:58:32;97631.97;;;11.57;56.00
45129;BME280;35512;56.312;101.728;2023-02-22T08:01:01;97626.00;;;11.52;55.66
45129;BME280;35512;56.312;101.728;2023-02-22T08:03:33;97636.25;;;11.46;55.30
45129;BME280;35512;56.312;101.728;2023-02-22T08:06:05;97632.44;;;11.35;55.32
45129;BME280;35512;56.312;101.728;2023-02-22T08:08:34;97629.47;;;11.27;54.64
45129;BME280;35512;56.312;101.728;2023-02-22T08:11:04;97631.25;;;11.11;54.95
45129;BME280;35512;56.312;101.728;2023-02-22T08:13:34;97635.66;;;10.91;54.59
45129;BME280;35512;56.312;101.728;2023-02-22T08:16:04;97635.47;;;10.75;54.58
45129;BME280;35512;56.312;101.728;2023-02-22T08:18:33;97632.06;;;10.65;54.57
45129;BME280;35512;56.312;101.728;2023-02-22T08:21:02;97629.84;;;10.68;54.24
45129;BME280;35512;56.312;101.728;2023-02-22T08:23:31;97637.13;;;10.67;54.08
45129;BME280;35512;56.312;101.728;2023-02-22T08:26:06;97634.56;;;10.71;54.38
45129;BME280;35512;56.312;101.728;2023-02-22T08:28:35;97629.47;;;10.57;53.73
45129;BME280;35512;56.312;101.728;2023-02-22T08:31:04;97632.28;;;10.18;53.99
45129;BME280;35512;56.312;101.728;2023-02-22T08:33:35;97637.09;;;9.91;53.83
45129;BME280;35512;56.312;101.728;2023-02-22T08:36:04;97633.94;;;9.59;53.87
45129;BME280;35512;56.312;101.728;2023-02-22T08:38:33;97642.66;;;9.26;53.98
45129;BME280;35512;56.312;101.728;2023-02-22T08:41:02;97644.75;;;9.21;54.23
45129;BME280;35512;56.312;101.728;2023-02-22T08:43:31;97648.44;;;9.07;54.04
45129;BME280;35512;56.312;101.728;2023-02-22T08:46:00;97651.53;;;8.79;53.93
45129;BME280;35512;56.312;101.728;2023-02-22T08:48:29;97642.69;;;8.53;54.12
45129;BME280;35512;56.312;101.728;2023-02-22T08:50:58;97651.56;;;8.36;53.53
45129;BME280;35512;56.312;101.728;2023-02-22T08:53:27;97650.28;;;8.16;53.79
45129;BME280;35512;56.312;101.728;2023-02-22T08:55:56;97649.78;;;7.87;53.58
45129;BME280;35512;56.312;101.728;2023-02-22T08:58:25;97653.25;;;7.70;54.41
45129;BME280;35512;56.312;101.728;2023-02-22T09:00:54;97652.22;;;7.49;54.03
45129;BME280;35512;56.312;101.728;2023-02-22T09:03:24;97664.94;;;7.25;53.88
45129;BME280;35512;56.312;101.728;2023-02-22T09:05:53;97658.53;;;6.81;53.96
45129;BME280;35512;56.312;101.728;2023-02-22T09:08:22;97662.09;;;6.45;53.95
45129;BME280;35512;56.312;101.728;2023-02-22T09:10:50;97667.28;;;6.05;53.19
45129;BME280;35512;56.312;101.728;2023-02-22T09:13:19;97671.59;;;5.36;52.94
45129;BME280;35512;56.312;101.728;2023-02-22T09:15:48;97669.75;;;4.24;54.09
45129;BME280;35512;56.312;101.728;2023-02-22T09:18:17;97666.16;;;2.69;55.47
45129;BME280;35512;56.312;101.728;2023-02-22T09:20:48;97670.44;;;1.21;57.93
45129;BME280;35512;56.312;101.728;2023-02-22T09:23:17;97665.44;;;0.06;59.40
45129;BME280;35512;56.312;101.728;2023-02-22T09:25:49;97682.06;;;-0.93;60.17
45129;BME280;35512;56.312;101.728;2023-02-22T09:28:18;97679.78;;;-1.82;61.47
45129;BME280;35512;56.312;101.728;2023-02-22T09:30:47;97683.28;;;-2.53;62.13
45129;BME280;35512;56.312;101.728;2023-02-22T09:33:17;97693.75;;;-3.02;62.66
45129;BME280;35512;56.312;101.728;2023-02-22T09:35:48;97687.28;;;-3.46;63.05
45129;BME280;35512;56.312;101.728;2023-02-22T09:38:20;97690.03;;;-3.86;62.85
45129;BME280;35512;56.312;101.728;2023-02-22T09:41:19;97684.81;;;-4.27;63.68
45129;BME280;35512;56.312;101.728;2023-02-22T09:43:52;97684.59;;;-4.66;63.07
45129;BME280;35512;56.312;101.728;2023-02-22T09:46:31;97678.81;;;-5.04;64.03
45129;BME280;35512;56.312;101.728;2023-02-22T09:51:54;97679.81;;;-5.52;64.39
45129;BME280;35512;56.312;101.728;2023-02-22T09:54:35;97677.50;;;-5.72;64.87
45129;BME280;35512;56.312;101.728;2023-02-22T09:57:36;97689.72;;;-5.90;65.41
45129;BME280;35512;56.312;101.728;2023-02-22T10:00:16;97690.81;;;-6.09;64.47
45129;BME280;35512;56.312;101.728;2023-02-22T10:05:38;97682.88;;;-6.70;65.12
45129;BME280;35512;56.312;101.728;2023-02-22T10:08:14;97688.56;;;-6.92;65.28
45129;BME280;35512;56.312;101.728;2023-02-22T10:10:46;97681.34;;;-7.15;65.47
45129;BME280;35512;56.312;101.728;2023-02-22T10:26:57;97710.06;;;-8.03;66.85
45129;BME280;35512;56.312;101.728;2023-02-22T10:29:35;97705.91;;;-8.17;67.05
45129;BME280;35512;56.312;101.728;2023-02-22T10:32:15;97707.00;;;-8.32;67.46
45129;BME280;35512;56.312;101.728;2023-02-22T10:34:51;97700.44;;;-8.47;67.23
45129;BME280;35512;56.312;101.728;2023-02-22T10:37:31;97707.72;;;-8.56;67.53
45129;BME280;35512;56.312;101.728;2023-02-22T10:40:22;97713.41;;;-8.66;67.96
45129;BME280;35512;56.312;101.728;2023-02-22T10:43:04;97711.22;;;-8.82;67.48
45129;BME280;35512;56.312;101.728;2023-02-22T10:45:34;97708.06;;;-8.98;67.68
45129;BME280;35512;56.312;101.728;2023-02-22T10:48:07;97706.66;;;-9.07;68.06
45129;BME280;35512;56.312;101.728;2023-02-22T10:50:40;97709.06;;;-9.12;68.22
45129;BME280;35512;56.312;101.728;2023-02-22T10:53:11;97709.91;;;-9.19;68.08
45129;BME280;35512;56.312;101.728;2023-02-22T10:56:12;97712.91;;;-9.28;68.34
45129;BME280;35512;56.312;101.728;2023-02-22T11:04:09;97719.56;;;-9.66;68.59
45129;BME280;35512;56.312;101.728;2023-02-22T11:06:45;97716.75;;;-9.71;68.46
45129;BME280;35512;56.312;101.728;2023-02-22T11:09:20;97724.19;;;-9.75;68.57
45129;BME280;35512;56.312;101.728;2023-02-22T11:12:08;97720.75;;;-9.89;68.61
45129;BME280;35512;56.312;101.728;2023-02-22T11:14:37;97727.16;;;-9.98;68.37
45129;BME280;35512;56.312;101.728;2023-02-22T11:17:07;97735.81;;;-10.04;68.50
45129;BME280;35512;56.312;101.728;2023-02-22T11:19:45;97718.13;;;-10.09;68.51
45129;BME280;35512;56.312;101.728;2023-02-22T11:22:45;97729.56;;;-10.10;68.84
45129;BME280;35512;56.312;101.728;2023-02-22T11:25:20;97737.59;;;-10.18;68.74
45129;BME280;35512;56.312;101.728;2023-02-22T11:27:51;97739.34;;;-10.25;68.74
45129;BME280;35512;56.312;101.728;2023-02-22T11:30:26;97744.19;;;-10.29;69.30
45129;BME280;35512;56.312;101.728;2023-02-22T11:32:57;97748.97;;;-10.32;68.87
45129;BME280;35512;56.312;101.728;2023-02-22T11:38:16;97749.19;;;-10.41;69.47
45129;BME280;35512;56.312;101.728;2023-02-22T11:40:47;97754.97;;;-10.52;68.79
45129;BME280;35512;56.312;101.728;2023-02-22T11:43:32;97758.69;;;-10.68;69.11
45129;BME280;35512;56.312;101.728;2023-02-22T11:49:07;97760.44;;;-10.82;69.32
45129;BME280;35512;56.312;101.728;2023-02-22T11:52:21;97760.25;;;-10.80;69.44
45129;BME280;35512;56.312;101.728;2023-02-22T11:55:07;97757.63;;;-10.80;69.78
45129;BME280;35512;56.312;101.728;2023-02-22T11:58:34;97762.03;;;-10.88;69.80
45129;BME280;35512;56.312;101.728;2023-02-22T12:01:29;97769.19;;;-10.96;69.54
45129;BME280;35512;56.312;101.728;2023-02-22T12:04:35;97766.31;;;-11.01;69.79
45129;BME280;35512;56.312;101.728;2023-02-22T12:21:30;97769.41;;;-11.19;69.98
45129;BME280;35512;56.312;101.728;2023-02-22T12:24:18;97767.94;;;-11.29;70.12
45129;BME280;35512;56.312;101.728;2023-02-22T12:26:59;97772.69;;;-11.39;70.56
45129;BME280;35512;56.312;101.728;2023-02-22T12:29:48;97759.09;;;-11.56;69.91
45129;BME280;35512;56.312;101.728;2023-02-22T12:35:27;97781.56;;;-11.55;70.10
45129;BME280;35512;56.312;101.728;2023-02-22T12:38:17;97777.31;;;-11.63;70.12
45129;BME280;35512;56.312;101.728;2023-02-22T12:40:55;97773.28;;;-11.65;69.68
45129;BME280;35512;56.312;101.728;2023-02-22T12:43:31;97774.44;;;-11.68;70.55
45129;BME280;35512;56.312;101.728;2023-02-22T12:48:56;97772.56;;;-11.74;70.63
45129;BME280;35512;56.312;101.728;2023-02-22T12:56:56;97749.75;;;-11.94;70.16
45129;BME280;35512;56.312;101.728;2023-02-22T12:59:32;97765.81;;;-11.90;69.92
45129;BME280;35512;56.312;101.728;2023-02-22T13:02:27;97768.56;;;-11.98;70.60
45129;BME280;35512;56.312;101.728;2023-02-22T13:05:00;97764.97;;;-11.97;70.93
45129;BME280;35512;56.312;101.728;2023-02-22T13:10:38;97765.78;;;-11.97;70.75
45129;BME280;35512;56.312;101.728;2023-02-22T13:18:49;97770.66;;;-11.87;70.97
45129;BME280;35512;56.312;101.728;2023-02-22T13:21:40;97765.00;;;-11.91;70.81
45129;BME280;35512;56.312;101.728;2023-02-22T13:27:22;97756.34;;;-11.98;70.48
45129;BME280;35512;56.312;101.728;2023-02-22T13:29:46;97756.53;;;-11.99;70.98
45129;BME280;35512;56.312;101.728;2023-02-22T13:32:23;97770.81;;;-11.95;70.79
45129;BME280;35512;56.312;101.728;2023-02-22T13:37:57;97772.00;;;-11.98;71.10
45129;BME280;35512;56.312;101.728;2023-02-22T13:43:16;97782.22;;;-11.96;71.06
45129;BME280;35512;56.312;101.728;2023-02-22T13:51:30;97785.81;;;-11.97;71.45
45129;BME280;35512;56.312;101.728;2023-02-22T13:54:06;97784.03;;;-11.97;70.93
45129;BME280;35512;56.312;101.728;2023-02-22T13:56:41;97777.72;;;-12.02;71.42
45129;BME280;35512;56.312;101.728;2023-02-22T13:59:27;97785.19;;;-11.99;71.45
45129;BME280;35512;56.312;101.728;2023-02-22T14:01:57;97782.94;;;-12.02;71.14
45129;BME280;35512;56.312;101.728;2023-02-22T14:07:00;97789.25;;;-11.97;71.25
45129;BME280;35512;56.312;101.728;2023-02-22T14:09:49;97794.00;;;-12.00;71.06
45129;BME280;35512;56.312;101.728;2023-02-22T14:17:59;97798.44;;;-12.16;71.33
45129;BME280;35512;56.312;101.728;2023-02-22T14:20:34;97794.94;;;-12.23;71.24
45129;BME280;35512;56.312;101.728;2023-02-22T14:25:52;97796.75;;;-12.24;71.63
45129;BME280;35512;56.312;101.728;2023-02-22T14:28:41;97807.34;;;-12.25;71.44
45129;BME280;35512;56.312;101.728;2023-02-22T14:31:13;97804.09;;;-12.27;71.62
45129;BME280;35512;56.312;101.728;2023-02-22T14:34:21;97808.31;;;-12.26;71.44
45129;BME280;35512;56.312;101.728;2023-02-22T14:37:11;97811.31;;;-12.29;71.37
45129;BME280;35512;56.312;101.728;2023-02-22T14:39:53;97803.41;;;-12.36;71.23
45129;BME280;35512;56.312;101.728;2023-02-22T14:45:23;97806.38;;;-12.54;71.98
45129;BME280;35512;56.312;101.728;2023-02-22T14:50:56;97808.72;;;-12.59;71.68
45129;BME280;35512;56.312;101.728;2023-02-22T14:56:58;97794.72;;;-12.58;71.93
45129;BME280;35512;56.312;101.728;2023-02-22T15:00:12;97814.63;;;-12.50;71.65
45129;BME280;35512;56.312;101.728;2023-02-22T15:02:51;97789.97;;;-12.69;71.56
45129;BME280;35512;56.312;101.728;2023-02-22T15:05:20;97816.91;;;-12.62;71.60
45129;BME280;35512;56.312;101.728;2023-02-22T15:07:58;97816.63;;;-12.67;71.88
45129;BME280;35512;56.312;101.728;2023-02-22T15:10:39;97814.38;;;-12.70;71.56
45129;BME280;35512;56.312;101.728;2023-02-22T15:13:24;97811.13;;;-12.72;71.89
45129;BME280;35512;56.312;101.728;2023-02-22T15:15:55;97809.34;;;-12.72;72.02
45129;BME280;35512;56.312;101.728;2023-02-22T15:18:43;97775.69;;;-13.03;71.58
45129;BME280;35512;56.312;101.728;2023-02-22T15:21:16;97805.38;;;-12.83;71.83
45129;BME280;35512;56.312;101.728;2023-02-22T15:23:57;97808.25;;;-12.78;72.23
45129;BME280;35512;56.312;101.728;2023-02-22T15:26:36;97808.25;;;-12.78;71.70
45129;BME280;35512;56.312;101.728;2023-02-22T15:29:34;97812.38;;;-12.83;72.02
45129;BME280;35512;56.312;101.728;2023-02-22T15:38:18;97830.41;;;-12.97;71.88
45129;BME280;35512;56.312;101.728;2023-02-22T15:41:01;97838.91;;;-13.03;72.00